GLO1824 SBGL-SBPA
Flight info
| Callsign | GLO1824 |
|---|---|
| Flight time | 1h 47m |
| Altitude | 36000 |
| Route | BITAK UN857 DOKRO DCT VUKMO |
| Aircraft | B38M/M-SDE1FGHILORVWXY/HB1 |
Departure
| Time | 2026-04-27 01:16 |
|---|---|
| Airport | Rio Galeão – Tom Jobim International Airport (SBGL) |
Arrival
| Time | 2026-04-27 03:03 |
|---|---|
| Airport | Porto Alegre-Salgado Filho International Airport (SBPA) |
| Time | Latitude | Longitude | Altitude | Speed | Heading |
|---|---|---|---|---|---|
| 2026-04-27 01:02 | -22.81455 | -43.24821 | 25 ft | 0 kts | 72° |
| 2026-04-27 01:09 | -22.81459 | -43.24833 | 24 ft | 3 kts | 72° |
| 2026-04-27 01:09 | -22.81464 | -43.24852 | 26 ft | 3 kts | 72° |
| 2026-04-27 01:10 | -22.81470 | -43.24871 | 26 ft | 3 kts | 72° |
| 2026-04-27 01:10 | -22.81474 | -43.24885 | 26 ft | 0 kts | 72° |
| 2026-04-27 01:11 | -22.81442 | -43.24880 | 23 ft | 13 kts | 334° |
| 2026-04-27 01:11 | -22.81461 | -43.25018 | 24 ft | 22 kts | 256° |
| 2026-04-27 01:11 | -22.81452 | -43.25128 | 21 ft | 13 kts | 291° |
| 2026-04-27 01:12 | -22.81412 | -43.25214 | 22 ft | 13 kts | 301° |
| 2026-04-27 01:12 | -22.81359 | -43.25295 | 21 ft | 13 kts | 306° |
| 2026-04-27 01:12 | -22.81299 | -43.25375 | 21 ft | 15 kts | 320° |
| 2026-04-27 01:12 | -22.81202 | -43.25442 | 21 ft | 17 kts | 332° |
| 2026-04-27 01:13 | -22.81084 | -43.25475 | 25 ft | 18 kts | 355° |
| 2026-04-27 01:13 | -22.80964 | -43.25466 | 25 ft | 16 kts | 6° |
| 2026-04-27 01:13 | -22.80903 | -43.25512 | 28 ft | 12 kts | 302° |
| 2026-04-27 01:13 | -22.80805 | -43.25576 | 26 ft | 19 kts | 31° |
| 2026-04-27 01:14 | -22.80697 | -43.25484 | 23 ft | 18 kts | 39° |
| 2026-04-27 01:14 | -22.80605 | -43.25447 | 29 ft | 9 kts | 342° |
| 2026-04-27 01:14 | -22.80539 | -43.25523 | 30 ft | 15 kts | 310° |
| 2026-04-27 01:14 | -22.80461 | -43.25581 | 30 ft | 15 kts | 328° |
| 2026-04-27 01:15 | -22.80362 | -43.25602 | 27 ft | 16 kts | 23° |
| 2026-04-27 01:15 | -22.80265 | -43.25525 | 25 ft | 17 kts | 39° |
| 2026-04-27 01:15 | -22.80184 | -43.25450 | 27 ft | 13 kts | 42° |
| 2026-04-27 01:15 | -22.80162 | -43.25405 | 28 ft | 1 kts | 71° |
| 2026-04-27 01:16 | -22.80128 | -43.25282 | 26 ft | 57 kts | 75° |
| 2026-04-27 01:16 | -22.79941 | -43.24528 | 33 ft | 148 kts | 75° |
| 2026-04-27 01:16 | -22.79664 | -43.23151 | 207 ft | 219 kts | 77° |
| 2026-04-27 01:16 | -22.79227 | -43.21424 | 1002 ft | 260 kts | 74° |
| 2026-04-27 01:17 | -22.78810 | -43.19315 | 1561 ft | 311 kts | 79° |
| 2026-04-27 01:17 | -22.78468 | -43.16929 | 2073 ft | 316 kts | 80° |
| 2026-04-27 01:17 | -22.78160 | -43.14801 | 2883 ft | 258 kts | 79° |
| 2026-04-27 01:17 | -22.77846 | -43.12862 | 3643 ft | 265 kts | 75° |
| 2026-04-27 01:18 | -22.77330 | -43.10941 | 4604 ft | 270 kts | 71° |
| 2026-04-27 01:18 | -22.76799 | -43.08972 | 5473 ft | 282 kts | 73° |
| 2026-04-27 01:18 | -22.76272 | -43.06917 | 6288 ft | 285 kts | 72° |
| 2026-04-27 01:18 | -22.75904 | -43.04912 | 7008 ft | 290 kts | 85° |
| 2026-04-27 01:19 | -22.76024 | -43.02893 | 7739 ft | 293 kts | 101° |
| 2026-04-27 01:19 | -22.76673 | -43.00797 | 8552 ft | 295 kts | 117° |
| 2026-04-27 01:19 | -22.77811 | -42.98938 | 9340 ft | 299 kts | 131° |
| 2026-04-27 01:19 | -22.79368 | -42.97406 | 9720 ft | 304 kts | 146° |
| 2026-04-27 01:20 | -22.81218 | -42.96342 | 9874 ft | 301 kts | 161° |
| 2026-04-27 01:20 | -22.83044 | -42.95847 | 9952 ft | 299 kts | 174° |
| 2026-04-27 01:20 | -22.85058 | -42.95842 | 10002 ft | 297 kts | 189° |
| 2026-04-27 01:20 | -22.86994 | -42.96407 | 10320 ft | 293 kts | 205° |
| 2026-04-27 01:21 | -22.88764 | -42.97523 | 10669 ft | 295 kts | 219° |
| 2026-04-27 01:21 | -22.90245 | -42.99047 | 10985 ft | 294 kts | 227° |
| 2026-04-27 01:21 | -22.91649 | -43.00669 | 11302 ft | 295 kts | 228° |
| 2026-04-27 01:21 | -22.92881 | -43.02118 | 11597 ft | 309 kts | 228° |
| 2026-04-27 01:22 | -22.94425 | -43.03925 | 11997 ft | 343 kts | 228° |
| 2026-04-27 01:22 | -22.96173 | -43.05852 | 12379 ft | 376 kts | 223° |
| 2026-04-27 01:22 | -22.98271 | -43.07586 | 12723 ft | 386 kts | 217° |
| 2026-04-27 01:22 | -23.00369 | -43.09381 | 13061 ft | 385 kts | 222° |
| 2026-04-27 01:23 | -23.02440 | -43.11238 | 13418 ft | 387 kts | 219° |
| 2026-04-27 01:23 | -23.04233 | -43.12740 | 13709 ft | 389 kts | 220° |
| 2026-04-27 01:23 | -23.06374 | -43.14693 | 14039 ft | 390 kts | 220° |
| 2026-04-27 01:23 | -23.08522 | -43.16517 | 14359 ft | 392 kts | 220° |
| 2026-04-27 01:24 | -23.10633 | -43.18399 | 14684 ft | 394 kts | 221° |
| 2026-04-27 01:24 | -23.12781 | -43.20271 | 15013 ft | 397 kts | 220° |
| 2026-04-27 01:24 | -23.14933 | -43.22149 | 15348 ft | 398 kts | 221° |
| 2026-04-27 01:24 | -23.16805 | -43.23810 | 15643 ft | 400 kts | 221° |
| 2026-04-27 01:25 | -23.18989 | -43.25701 | 15993 ft | 402 kts | 221° |
| 2026-04-27 01:25 | -23.21166 | -43.27632 | 16337 ft | 405 kts | 221° |
| 2026-04-27 01:25 | -23.23370 | -43.29550 | 16691 ft | 407 kts | 221° |
| 2026-04-27 01:25 | -23.25573 | -43.31494 | 17046 ft | 409 kts | 222° |
| 2026-04-27 01:26 | -23.27795 | -43.33444 | 17409 ft | 412 kts | 221° |
| 2026-04-27 01:26 | -23.29765 | -43.35168 | 17735 ft | 414 kts | 222° |
| 2026-04-27 01:26 | -23.31978 | -43.37188 | 18104 ft | 416 kts | 223° |
| 2026-04-27 01:26 | -23.34245 | -43.39107 | 18433 ft | 420 kts | 220° |
| 2026-04-27 01:27 | -23.36548 | -43.41066 | 18765 ft | 421 kts | 223° |
| 2026-04-27 01:27 | -23.38842 | -43.43055 | 19085 ft | 423 kts | 220° |
| 2026-04-27 01:27 | -23.41176 | -43.45015 | 19411 ft | 424 kts | 222° |
| 2026-04-27 01:27 | -23.43197 | -43.46790 | 19715 ft | 426 kts | 222° |
| 2026-04-27 01:28 | -23.45547 | -43.48769 | 20037 ft | 428 kts | 221° |
| 2026-04-27 01:28 | -23.47881 | -43.50797 | 20379 ft | 430 kts | 222° |
| 2026-04-27 01:28 | -23.50242 | -43.52810 | 20723 ft | 432 kts | 221° |
| 2026-04-27 01:28 | -23.52600 | -43.54840 | 21071 ft | 433 kts | 223° |
| 2026-04-27 01:29 | -23.54938 | -43.56853 | 21417 ft | 435 kts | 222° |
| 2026-04-27 01:29 | -23.57042 | -43.58652 | 21736 ft | 437 kts | 223° |
| 2026-04-27 01:29 | -23.59427 | -43.60718 | 22088 ft | 439 kts | 222° |
| 2026-04-27 01:29 | -23.61826 | -43.62786 | 22457 ft | 441 kts | 223° |
| 2026-04-27 01:30 | -23.64160 | -43.64954 | 22817 ft | 440 kts | 229° |
| 2026-04-27 01:30 | -23.66287 | -43.67351 | 23197 ft | 442 kts | 229° |
| 2026-04-27 01:30 | -23.68538 | -43.69658 | 23569 ft | 444 kts | 229° |
| 2026-04-27 01:30 | -23.70426 | -43.71779 | 23845 ft | 445 kts | 230° |
| 2026-04-27 01:31 | -23.72640 | -43.74099 | 24155 ft | 448 kts | 228° |
| 2026-04-27 01:31 | -23.74844 | -43.76497 | 24481 ft | 448 kts | 230° |
| 2026-04-27 01:31 | -23.77073 | -43.78884 | 24800 ft | 450 kts | 228° |
| 2026-04-27 01:31 | -23.79309 | -43.81281 | 25135 ft | 451 kts | 230° |
| 2026-04-27 01:32 | -23.81545 | -43.83703 | 25467 ft | 454 kts | 229° |
| 2026-04-27 01:32 | -23.83521 | -43.85808 | 25790 ft | 454 kts | 229° |
| 2026-04-27 01:32 | -23.85760 | -43.88242 | 26277 ft | 455 kts | 229° |
| 2026-04-27 01:32 | -23.88030 | -43.90668 | 26778 ft | 458 kts | 229° |
| 2026-04-27 01:33 | -23.90285 | -43.93113 | 27259 ft | 455 kts | 229° |
| 2026-04-27 01:33 | -23.92509 | -43.95499 | 27756 ft | 452 kts | 229° |
| 2026-04-27 01:33 | -23.94731 | -43.97908 | 28270 ft | 449 kts | 230° |
| 2026-04-27 01:33 | -23.96686 | -44.00012 | 28730 ft | 448 kts | 229° |
| 2026-04-27 01:34 | -23.98896 | -44.02403 | 29270 ft | 447 kts | 230° |
| 2026-04-27 01:34 | -24.01105 | -44.04785 | 29815 ft | 445 kts | 230° |
| 2026-04-27 01:34 | -24.03302 | -44.07164 | 30305 ft | 443 kts | 230° |
| 2026-04-27 01:34 | -24.05492 | -44.09527 | 30775 ft | 441 kts | 230° |
| 2026-04-27 01:35 | -24.07669 | -44.11889 | 31253 ft | 439 kts | 230° |
| 2026-04-27 01:35 | -24.09593 | -44.13968 | 31690 ft | 439 kts | 230° |
| 2026-04-27 01:35 | -24.11757 | -44.16317 | 32198 ft | 437 kts | 230° |
| 2026-04-27 01:35 | -24.13888 | -44.18620 | 32701 ft | 436 kts | 230° |
| 2026-04-27 01:36 | -24.16035 | -44.20955 | 33226 ft | 435 kts | 230° |
| 2026-04-27 01:36 | -24.18180 | -44.23277 | 33747 ft | 433 kts | 230° |
| 2026-04-27 01:36 | -24.20312 | -44.25596 | 34235 ft | 431 kts | 230° |
| 2026-04-27 01:36 | -24.22200 | -44.27642 | 34658 ft | 430 kts | 230° |
| 2026-04-27 01:37 | -24.24316 | -44.29945 | 35130 ft | 430 kts | 231° |
| 2026-04-27 01:37 | -24.26448 | -44.32258 | 35555 ft | 432 kts | 231° |
| 2026-04-27 01:37 | -24.28597 | -44.34603 | 35751 ft | 441 kts | 231° |
| 2026-04-27 01:38 | -24.33014 | -44.39406 | 35883 ft | 457 kts | 230° |
| 2026-04-27 01:38 | -24.37194 | -44.43958 | 35885 ft | 444 kts | 231° |
| 2026-04-27 01:39 | -24.41507 | -44.48666 | 35905 ft | 439 kts | 231° |
| 2026-04-27 01:39 | -24.45886 | -44.53446 | 35916 ft | 443 kts | 231° |
| 2026-04-27 01:40 | -24.50129 | -44.58084 | 35911 ft | 440 kts | 232° |
| 2026-04-27 01:40 | -24.54425 | -44.62879 | 35909 ft | 439 kts | 232° |
| 2026-04-27 01:41 | -24.58709 | -44.67674 | 35912 ft | 440 kts | 231° |
| 2026-04-27 01:41 | -24.62730 | -44.72172 | 35910 ft | 440 kts | 231° |
| 2026-04-27 01:42 | -24.66981 | -44.76931 | 35908 ft | 439 kts | 231° |
| 2026-04-27 01:42 | -24.71255 | -44.81722 | 35914 ft | 439 kts | 231° |
| 2026-04-27 01:43 | -24.75249 | -44.86203 | 35909 ft | 439 kts | 231° |
| 2026-04-27 01:43 | -24.79519 | -44.90998 | 35908 ft | 438 kts | 232° |
| 2026-04-27 01:44 | -24.83776 | -44.95784 | 35913 ft | 437 kts | 232° |
| 2026-04-27 01:44 | -24.87872 | -45.00393 | 35916 ft | 438 kts | 232° |
| 2026-04-27 01:45 | -24.92130 | -45.05191 | 35913 ft | 438 kts | 232° |
| 2026-04-27 01:45 | -24.96416 | -45.10030 | 35932 ft | 449 kts | 232° |
| 2026-04-27 01:46 | -25.00675 | -45.14831 | 35916 ft | 451 kts | 232° |
| 2026-04-27 01:46 | -25.05028 | -45.19752 | 35911 ft | 446 kts | 232° |
| 2026-04-27 01:47 | -25.09331 | -45.24621 | 35922 ft | 447 kts | 232° |
| 2026-04-27 01:47 | -25.13434 | -45.29267 | 35923 ft | 448 kts | 232° |
| 2026-04-27 01:48 | -25.17770 | -45.34182 | 35918 ft | 446 kts | 232° |
| 2026-04-27 01:48 | -25.22098 | -45.39096 | 35921 ft | 446 kts | 232° |
| 2026-04-27 01:49 | -25.26134 | -45.43678 | 35922 ft | 447 kts | 232° |
| 2026-04-27 01:49 | -25.30465 | -45.48604 | 35924 ft | 446 kts | 232° |
| 2026-04-27 01:50 | -25.34779 | -45.53518 | 35924 ft | 445 kts | 232° |
| 2026-04-27 01:50 | -25.38817 | -45.58119 | 35926 ft | 445 kts | 232° |
| 2026-04-27 01:51 | -25.43125 | -45.63035 | 35925 ft | 445 kts | 232° |
| 2026-04-27 01:51 | -25.47401 | -45.67920 | 35928 ft | 444 kts | 232° |
| 2026-04-27 01:52 | -25.51414 | -45.72507 | 35925 ft | 444 kts | 232° |
| 2026-04-27 01:52 | -25.55711 | -45.77426 | 35928 ft | 445 kts | 232° |
| 2026-04-27 01:53 | -25.60008 | -45.82350 | 35923 ft | 444 kts | 232° |
| 2026-04-27 01:53 | -25.64024 | -45.86955 | 35930 ft | 444 kts | 232° |
| 2026-04-27 01:54 | -25.68313 | -45.91882 | 35930 ft | 445 kts | 232° |
| 2026-04-27 01:54 | -25.72615 | -45.96829 | 35928 ft | 445 kts | 233° |
| 2026-04-27 01:55 | -25.76659 | -46.01486 | 35925 ft | 444 kts | 233° |
| 2026-04-27 01:55 | -25.80917 | -46.06393 | 35929 ft | 444 kts | 233° |
| 2026-04-27 01:56 | -25.87088 | -46.13509 | 35926 ft | 445 kts | 233° |
| 2026-04-27 01:56 | -25.91376 | -46.18465 | 35926 ft | 444 kts | 233° |
| 2026-04-27 01:57 | -25.95656 | -46.23417 | 35924 ft | 445 kts | 233° |
| 2026-04-27 01:57 | -25.99698 | -46.28099 | 35916 ft | 446 kts | 233° |
| 2026-04-27 01:58 | -26.03962 | -46.33043 | 35921 ft | 445 kts | 233° |
| 2026-04-27 01:58 | -26.08242 | -46.38011 | 35922 ft | 445 kts | 233° |
| 2026-04-27 01:59 | -26.12380 | -46.42820 | 35927 ft | 446 kts | 233° |
| 2026-04-27 01:59 | -26.16665 | -46.47804 | 35922 ft | 446 kts | 233° |
| 2026-04-27 02:00 | -26.20957 | -46.52804 | 35923 ft | 446 kts | 233° |
| 2026-04-27 02:00 | -26.24993 | -46.57509 | 35931 ft | 446 kts | 233° |
| 2026-04-27 02:01 | -26.29261 | -46.62491 | 35926 ft | 447 kts | 233° |
| 2026-04-27 02:01 | -26.33558 | -46.67511 | 35926 ft | 447 kts | 233° |
| 2026-04-27 02:02 | -26.37575 | -46.72228 | 35931 ft | 447 kts | 234° |
| 2026-04-27 02:02 | -26.41486 | -46.77489 | 35932 ft | 441 kts | 241° |
| 2026-04-27 02:03 | -26.45194 | -46.82991 | 35933 ft | 443 kts | 240° |
| 2026-04-27 02:03 | -26.48655 | -46.88155 | 35922 ft | 441 kts | 239° |
| 2026-04-27 02:04 | -26.52327 | -46.93643 | 35923 ft | 441 kts | 240° |
| 2026-04-27 02:04 | -26.56012 | -46.99148 | 35924 ft | 442 kts | 240° |
| 2026-04-27 02:05 | -26.59571 | -47.04470 | 35918 ft | 441 kts | 240° |
| 2026-04-27 02:05 | -26.63231 | -47.09954 | 35919 ft | 440 kts | 240° |
| 2026-04-27 02:06 | -26.66900 | -47.15456 | 35916 ft | 441 kts | 240° |
| 2026-04-27 02:06 | -26.70312 | -47.20577 | 35919 ft | 440 kts | 240° |
| 2026-04-27 02:07 | -26.73965 | -47.26068 | 35918 ft | 440 kts | 240° |
| 2026-04-27 02:07 | -26.77613 | -47.31557 | 35916 ft | 440 kts | 240° |
| 2026-04-27 02:08 | -26.81089 | -47.36795 | 35918 ft | 442 kts | 240° |
| 2026-04-27 02:08 | -26.84751 | -47.42318 | 35909 ft | 441 kts | 240° |
| 2026-04-27 02:09 | -26.88399 | -47.47828 | 35910 ft | 441 kts | 240° |
| 2026-04-27 02:09 | -26.91847 | -47.53042 | 35914 ft | 442 kts | 240° |
| 2026-04-27 02:10 | -26.95479 | -47.58542 | 35909 ft | 442 kts | 240° |
| 2026-04-27 02:10 | -26.99130 | -47.64076 | 35909 ft | 441 kts | 240° |
| 2026-04-27 02:11 | -27.02573 | -47.69302 | 35908 ft | 441 kts | 240° |
| 2026-04-27 02:11 | -27.06215 | -47.74835 | 35910 ft | 441 kts | 240° |
| 2026-04-27 02:12 | -27.09827 | -47.80331 | 35905 ft | 439 kts | 240° |
| 2026-04-27 02:12 | -27.13218 | -47.85496 | 35907 ft | 438 kts | 240° |
| 2026-04-27 02:13 | -27.16829 | -47.91002 | 35908 ft | 438 kts | 241° |
| 2026-04-27 02:13 | -27.20437 | -47.96512 | 35903 ft | 436 kts | 241° |
| 2026-04-27 02:14 | -27.23885 | -48.01781 | 35901 ft | 435 kts | 241° |
| 2026-04-27 02:14 | -27.27459 | -48.07255 | 35906 ft | 435 kts | 241° |
| 2026-04-27 02:15 | -27.31036 | -48.12736 | 35912 ft | 434 kts | 242° |
| 2026-04-27 02:15 | -27.34381 | -48.17870 | 35907 ft | 432 kts | 242° |
| 2026-04-27 02:16 | -27.37935 | -48.23328 | 35906 ft | 433 kts | 242° |
| 2026-04-27 02:16 | -27.41464 | -48.28756 | 35906 ft | 433 kts | 242° |
| 2026-04-27 02:17 | -27.44812 | -48.33912 | 35907 ft | 432 kts | 242° |
| 2026-04-27 02:17 | -27.48353 | -48.39369 | 35906 ft | 432 kts | 242° |
| 2026-04-27 02:18 | -27.51895 | -48.44834 | 35913 ft | 431 kts | 243° |
| 2026-04-27 02:18 | -27.55201 | -48.49947 | 35910 ft | 429 kts | 243° |
| 2026-04-27 02:19 | -27.58688 | -48.55343 | 35920 ft | 429 kts | 243° |
| 2026-04-27 02:19 | -27.62198 | -48.60780 | 35915 ft | 428 kts | 243° |
| 2026-04-27 02:20 | -27.65483 | -48.65873 | 35912 ft | 427 kts | 243° |
| 2026-04-27 02:20 | -27.68973 | -48.71295 | 35924 ft | 427 kts | 243° |
| 2026-04-27 02:21 | -27.72434 | -48.76675 | 35928 ft | 427 kts | 243° |
| 2026-04-27 02:21 | -27.75715 | -48.81785 | 35908 ft | 426 kts | 243° |
| 2026-04-27 02:22 | -27.79187 | -48.87197 | 35932 ft | 424 kts | 244° |
| 2026-04-27 02:22 | -27.82656 | -48.92609 | 35945 ft | 425 kts | 244° |
| 2026-04-27 02:23 | -27.85881 | -48.97651 | 35930 ft | 422 kts | 244° |
| 2026-04-27 02:23 | -27.89315 | -49.03019 | 35957 ft | 422 kts | 244° |
| 2026-04-27 02:24 | -27.92746 | -49.08396 | 35938 ft | 422 kts | 244° |
| 2026-04-27 02:24 | -27.95981 | -49.13477 | 35963 ft | 424 kts | 244° |
| 2026-04-27 02:25 | -27.99409 | -49.18854 | 35968 ft | 423 kts | 244° |
| 2026-04-27 02:25 | -28.02828 | -49.24231 | 35957 ft | 421 kts | 244° |
| 2026-04-27 02:26 | -28.06050 | -49.29306 | 35979 ft | 422 kts | 244° |
| 2026-04-27 02:26 | -28.09479 | -49.34699 | 35973 ft | 421 kts | 245° |
| 2026-04-27 02:27 | -28.12890 | -49.40087 | 35954 ft | 419 kts | 245° |
| 2026-04-27 02:27 | -28.16064 | -49.45102 | 36017 ft | 420 kts | 245° |
| 2026-04-27 02:28 | -28.19469 | -49.50490 | 35968 ft | 420 kts | 245° |
| 2026-04-27 02:28 | -28.22873 | -49.55874 | 35999 ft | 419 kts | 245° |
| 2026-04-27 02:29 | -28.26039 | -49.60902 | 36008 ft | 418 kts | 245° |
| 2026-04-27 02:29 | -28.29416 | -49.66268 | 36004 ft | 417 kts | 245° |
| 2026-04-27 02:30 | -28.32793 | -49.71626 | 36000 ft | 418 kts | 245° |
| 2026-04-27 02:30 | -28.35955 | -49.76662 | 35982 ft | 415 kts | 245° |
| 2026-04-27 02:31 | -28.39308 | -49.82004 | 36011 ft | 417 kts | 244° |
| 2026-04-27 02:31 | -28.42664 | -49.87360 | 35904 ft | 419 kts | 245° |
| 2026-04-27 02:32 | -28.44149 | -49.89734 | 35696 ft | 417 kts | 245° |
| 2026-04-27 02:32 | -28.45826 | -49.92403 | 35477 ft | 411 kts | 245° |
| 2026-04-27 02:32 | -28.47476 | -49.95056 | 35194 ft | 414 kts | 245° |
| 2026-04-27 02:32 | -28.49148 | -49.97733 | 34703 ft | 414 kts | 245° |
| 2026-04-27 02:33 | -28.50810 | -50.00370 | 34216 ft | 405 kts | 245° |
| 2026-04-27 02:33 | -28.52415 | -50.02955 | 33653 ft | 395 kts | 245° |
| 2026-04-27 02:33 | -28.53788 | -50.05150 | 33178 ft | 385 kts | 245° |
| 2026-04-27 02:33 | -28.55298 | -50.07577 | 32637 ft | 377 kts | 246° |
| 2026-04-27 02:34 | -28.56804 | -50.10002 | 32118 ft | 375 kts | 246° |
| 2026-04-27 02:34 | -28.58317 | -50.12436 | 31416 ft | 377 kts | 246° |
| 2026-04-27 02:34 | -28.59831 | -50.14847 | 30687 ft | 371 kts | 246° |
| 2026-04-27 02:34 | -28.61309 | -50.17229 | 29978 ft | 366 kts | 246° |
| 2026-04-27 02:35 | -28.62600 | -50.19314 | 29256 ft | 362 kts | 246° |
| 2026-04-27 02:35 | -28.64045 | -50.21636 | 28476 ft | 357 kts | 246° |
| 2026-04-27 02:35 | -28.65453 | -50.23897 | 27720 ft | 353 kts | 246° |
| 2026-04-27 02:35 | -28.66860 | -50.26170 | 26980 ft | 349 kts | 246° |
| 2026-04-27 02:36 | -28.68251 | -50.28409 | 26243 ft | 345 kts | 246° |
| 2026-04-27 02:36 | -28.69630 | -50.30630 | 25527 ft | 341 kts | 246° |
| 2026-04-27 02:36 | -28.70881 | -50.32516 | 24908 ft | 346 kts | 239° |
| 2026-04-27 02:36 | -28.72589 | -50.34473 | 24237 ft | 348 kts | 236° |
| 2026-04-27 02:37 | -28.74347 | -50.36366 | 23576 ft | 346 kts | 234° |
| 2026-04-27 02:37 | -28.76113 | -50.38218 | 22799 ft | 344 kts | 233° |
| 2026-04-27 02:37 | -28.77916 | -50.40006 | 22010 ft | 346 kts | 229° |
| 2026-04-27 02:37 | -28.79877 | -50.41614 | 21258 ft | 345 kts | 226° |
| 2026-04-27 02:38 | -28.80903 | -50.42481 | 20841 ft | 342 kts | 227° |
| 2026-04-27 02:38 | -28.83396 | -50.44640 | 19807 ft | 338 kts | 227° |
| 2026-04-27 02:38 | -28.85278 | -50.46234 | 19112 ft | 335 kts | 225° |
| 2026-04-27 02:38 | -28.87140 | -50.47814 | 18419 ft | 331 kts | 226° |
| 2026-04-27 02:39 | -28.88969 | -50.49383 | 17653 ft | 328 kts | 225° |
| 2026-04-27 02:39 | -28.90765 | -50.50910 | 17282 ft | 314 kts | 225° |
| 2026-04-27 02:39 | -28.92274 | -50.52203 | 17129 ft | 299 kts | 225° |
| 2026-04-27 02:39 | -28.93360 | -50.53127 | 17065 ft | 292 kts | 225° |
| 2026-04-27 02:40 | -28.94979 | -50.54532 | 17047 ft | 293 kts | 226° |
| 2026-04-27 02:40 | -28.97149 | -50.56381 | 17034 ft | 295 kts | 225° |
| 2026-04-27 02:40 | -28.98787 | -50.57782 | 17024 ft | 294 kts | 225° |
| 2026-04-27 02:40 | -29.00420 | -50.59185 | 17017 ft | 293 kts | 225° |
| 2026-04-27 02:41 | -29.01861 | -50.60423 | 17014 ft | 294 kts | 225° |
| 2026-04-27 02:41 | -29.02947 | -50.61347 | 17013 ft | 295 kts | 225° |
| 2026-04-27 02:41 | -29.04585 | -50.62748 | 16986 ft | 294 kts | 225° |
| 2026-04-27 02:41 | -29.06219 | -50.64156 | 16992 ft | 294 kts | 225° |
| 2026-04-27 02:42 | -29.08383 | -50.66008 | 17021 ft | 292 kts | 225° |
| 2026-04-27 02:42 | -29.10024 | -50.67378 | 17045 ft | 297 kts | 220° |
| 2026-04-27 02:42 | -29.11744 | -50.68216 | 17062 ft | 313 kts | 206° |
| 2026-04-27 02:42 | -29.13884 | -50.68846 | 16655 ft | 317 kts | 202° |
| 2026-04-27 02:43 | -29.16026 | -50.69356 | 16215 ft | 311 kts | 200° |
| 2026-04-27 02:43 | -29.17429 | -50.69647 | 15939 ft | 308 kts | 199° |
| 2026-04-27 02:43 | -29.19542 | -50.69988 | 15523 ft | 306 kts | 193° |
| 2026-04-27 02:43 | -29.21656 | -50.70042 | 15244 ft | 299 kts | 190° |
| 2026-04-27 02:44 | -29.23446 | -50.70143 | 14938 ft | 291 kts | 193° |
| 2026-04-27 02:44 | -29.25464 | -50.70276 | 14523 ft | 289 kts | 190° |
| 2026-04-27 02:44 | -29.27448 | -50.70391 | 14114 ft | 285 kts | 192° |
| 2026-04-27 02:44 | -29.29427 | -50.70485 | 13784 ft | 280 kts | 190° |
| 2026-04-27 02:45 | -29.31347 | -50.70542 | 13434 ft | 274 kts | 190° |
| 2026-04-27 02:45 | -29.33218 | -50.70627 | 13042 ft | 270 kts | 191° |
| 2026-04-27 02:45 | -29.34858 | -50.70704 | 12693 ft | 267 kts | 190° |
| 2026-04-27 02:45 | -29.36706 | -50.70789 | 12288 ft | 265 kts | 190° |
| 2026-04-27 02:46 | -29.38546 | -50.70857 | 11891 ft | 262 kts | 189° |
| 2026-04-27 02:46 | -29.40355 | -50.70940 | 11468 ft | 260 kts | 190° |
| 2026-04-27 02:46 | -29.42158 | -50.71029 | 10966 ft | 258 kts | 189° |
| 2026-04-27 02:46 | -29.43936 | -50.71094 | 10603 ft | 254 kts | 188° |
| 2026-04-27 02:47 | -29.45487 | -50.71156 | 10273 ft | 252 kts | 189° |
| 2026-04-27 02:47 | -29.47229 | -50.71231 | 9941 ft | 250 kts | 189° |
| 2026-04-27 02:47 | -29.48933 | -50.71319 | 9523 ft | 247 kts | 189° |
| 2026-04-27 02:47 | -29.50650 | -50.71395 | 9095 ft | 247 kts | 188° |
| 2026-04-27 02:48 | -29.52361 | -50.71468 | 8682 ft | 246 kts | 187° |
| 2026-04-27 02:48 | -29.54058 | -50.71531 | 8282 ft | 244 kts | 188° |
| 2026-04-27 02:48 | -29.55522 | -50.71590 | 8154 ft | 232 kts | 188° |
| 2026-04-27 02:48 | -29.57119 | -50.71667 | 8065 ft | 234 kts | 189° |
| 2026-04-27 02:49 | -29.58810 | -50.71753 | 7486 ft | 248 kts | 188° |
| 2026-04-27 02:49 | -29.60502 | -50.71823 | 7216 ft | 238 kts | 187° |
| 2026-04-27 02:49 | -29.62115 | -50.71872 | 7069 ft | 225 kts | 187° |
| 2026-04-27 02:49 | -29.63630 | -50.71946 | 6829 ft | 218 kts | 189° |
| 2026-04-27 02:50 | -29.64941 | -50.72009 | 6570 ft | 215 kts | 189° |
| 2026-04-27 02:50 | -29.66420 | -50.72076 | 6289 ft | 211 kts | 189° |
| 2026-04-27 02:50 | -29.67890 | -50.72141 | 5902 ft | 210 kts | 189° |
| 2026-04-27 02:50 | -29.69340 | -50.72205 | 5531 ft | 208 kts | 189° |
| 2026-04-27 02:51 | -29.70785 | -50.72268 | 5171 ft | 207 kts | 189° |
| 2026-04-27 02:51 | -29.72159 | -50.72577 | 4783 ft | 196 kts | 213° |
| 2026-04-27 02:51 | -29.73129 | -50.73342 | 4442 ft | 191 kts | 223° |
| 2026-04-27 02:51 | -29.74172 | -50.74263 | 4181 ft | 184 kts | 224° |
| 2026-04-27 02:52 | -29.75129 | -50.75129 | 4060 ft | 168 kts | 225° |
| 2026-04-27 02:52 | -29.75959 | -50.75961 | 4003 ft | 152 kts | 231° |
| 2026-04-27 02:52 | -29.76725 | -50.76821 | 4008 ft | 155 kts | 232° |
| 2026-04-27 02:52 | -29.77465 | -50.77765 | 4032 ft | 161 kts | 233° |
| 2026-04-27 02:53 | -29.78168 | -50.78570 | 3982 ft | 162 kts | 226° |
| 2026-04-27 02:53 | -29.79186 | -50.79200 | 3894 ft | 167 kts | 209° |
| 2026-04-27 02:53 | -29.80285 | -50.79654 | 3924 ft | 168 kts | 206° |
| 2026-04-27 02:53 | -29.81391 | -50.80021 | 4116 ft | 162 kts | 203° |
| 2026-04-27 02:54 | -29.82515 | -50.80360 | 4166 ft | 170 kts | 205° |
| 2026-04-27 02:54 | -29.83621 | -50.80828 | 4186 ft | 175 kts | 211° |
| 2026-04-27 02:54 | -29.84607 | -50.81345 | 4186 ft | 175 kts | 213° |
| 2026-04-27 02:54 | -29.85702 | -50.81954 | 4211 ft | 174 kts | 213° |
| 2026-04-27 02:55 | -29.86751 | -50.82513 | 4464 ft | 162 kts | 212° |
| 2026-04-27 02:55 | -29.87792 | -50.83050 | 4543 ft | 167 kts | 212° |
| 2026-04-27 02:55 | -29.88860 | -50.83589 | 4275 ft | 168 kts | 211° |
| 2026-04-27 02:55 | -29.89890 | -50.84163 | 4119 ft | 160 kts | 219° |
| 2026-04-27 02:56 | -29.90693 | -50.84819 | 3926 ft | 159 kts | 226° |
| 2026-04-27 02:56 | -29.91479 | -50.85686 | 3729 ft | 158 kts | 232° |
| 2026-04-27 02:56 | -29.92235 | -50.86593 | 3656 ft | 150 kts | 232° |
| 2026-04-27 02:56 | -29.92931 | -50.87430 | 3588 ft | 144 kts | 232° |
| 2026-04-27 02:57 | -29.93639 | -50.88250 | 3527 ft | 145 kts | 231° |
| 2026-04-27 02:57 | -29.94247 | -50.89142 | 3502 ft | 140 kts | 240° |
| 2026-04-27 02:57 | -29.94771 | -50.89996 | 3354 ft | 156 kts | 239° |
| 2026-04-27 02:57 | -29.95422 | -50.91001 | 3236 ft | 157 kts | 237° |
| 2026-04-27 02:58 | -29.96115 | -50.91956 | 3187 ft | 151 kts | 235° |
| 2026-04-27 02:58 | -29.96763 | -50.92817 | 3310 ft | 138 kts | 234° |
| 2026-04-27 02:58 | -29.97440 | -50.93626 | 3313 ft | 143 kts | 231° |
| 2026-04-27 02:58 | -29.98160 | -50.94417 | 3303 ft | 146 kts | 231° |
| 2026-04-27 02:59 | -29.98843 | -50.95199 | 3380 ft | 142 kts | 231° |
| 2026-04-27 02:59 | -29.99462 | -50.96094 | 3320 ft | 148 kts | 245° |
| 2026-04-27 02:59 | -29.99826 | -50.97240 | 3302 ft | 156 kts | 258° |
| 2026-04-27 02:59 | -30.00010 | -50.98487 | 3446 ft | 163 kts | 265° |
| 2026-04-27 03:00 | -29.99972 | -50.99866 | 3350 ft | 169 kts | 275° |
| 2026-04-27 03:00 | -29.99875 | -51.01160 | 3097 ft | 157 kts | 272° |
| 2026-04-27 03:00 | -29.99837 | -51.02384 | 2797 ft | 149 kts | 271° |
| 2026-04-27 03:00 | -29.99818 | -51.03541 | 2482 ft | 146 kts | 271° |
| 2026-04-27 03:01 | -29.99792 | -51.04704 | 2182 ft | 143 kts | 271° |
| 2026-04-27 03:01 | -29.99745 | -51.05854 | 1814 ft | 146 kts | 272° |
| 2026-04-27 03:01 | -29.99690 | -51.07043 | 1583 ft | 152 kts | 273° |
| 2026-04-27 03:01 | -29.99643 | -51.08280 | 1398 ft | 156 kts | 272° |
| 2026-04-27 03:02 | -29.99624 | -51.09530 | 1240 ft | 158 kts | 273° |
| 2026-04-27 03:02 | -29.99591 | -51.10798 | 962 ft | 161 kts | 273° |
| 2026-04-27 03:02 | -29.99572 | -51.12107 | 692 ft | 162 kts | 272° |
| 2026-04-27 03:02 | -29.99553 | -51.13409 | 459 ft | 163 kts | 273° |
| 2026-04-27 03:03 | -29.99519 | -51.14701 | 223 ft | 168 kts | 272° |
| 2026-04-27 03:03 | -29.99460 | -51.17233 | 28 ft | 114 kts | 272° |
| 2026-04-27 03:03 | -29.99449 | -51.17774 | 27 ft | 30 kts | 271° |
| 2026-04-27 03:04 | -29.99442 | -51.17988 | 24 ft | 24 kts | 272° |
| 2026-04-27 03:04 | -29.99439 | -51.18158 | 23 ft | 18 kts | 269° |
| 2026-04-27 03:04 | -29.99397 | -51.18242 | 21 ft | 10 kts | 354° |
| 2026-04-27 03:04 | -29.99357 | -51.18227 | 21 ft | 6 kts | 52° |
| 2026-04-27 03:05 | -29.99315 | -51.18094 | 24 ft | 26 kts | 69° |
| 2026-04-27 03:05 | -29.99278 | -51.17908 | 25 ft | 22 kts | 103° |
| 2026-04-27 03:05 | -29.99277 | -51.17740 | 25 ft | 20 kts | 87° |
| 2026-04-27 03:05 | -29.99213 | -51.17695 | 28 ft | 11 kts | 350° |
| 2026-04-27 03:06 | -29.99154 | -51.17698 | 26 ft | 6 kts | 7° |
| 2026-04-27 03:06 | -29.99124 | -51.17677 | 27 ft | 6 kts | 40° |
| 2026-04-27 03:06 | -29.99104 | -51.17673 | 27 ft | 4 kts | 4° |
| 2026-04-27 03:06 | -29.99087 | -51.17679 | 29 ft | 3 kts | 341° |
| 2026-04-27 03:07 | -29.99079 | -51.17681 | 27 ft | 0 kts | 347° |